createdAt,value
2018-08-13T00:00:34.888Z,58.24
2018-08-13T00:01:35.289Z,58.45
2018-08-13T00:02:35.082Z,58.3
2018-08-13T00:03:34.846Z,58.39
2018-08-13T00:04:35.008Z,58.44
2018-08-13T00:05:35.002Z,58.36
2018-08-13T00:06:35.078Z,58.14
2018-08-13T00:07:35.692Z,58.27
2018-08-13T00:08:34.936Z,58.24
2018-08-13T00:09:34.953Z,58.42
2018-08-13T00:10:35.143Z,58.35
2018-08-13T00:11:35.165Z,58.24
2018-08-13T00:12:35.182Z,58.35
2018-08-13T00:13:34.930Z,58.32
2018-08-13T00:14:35.479Z,58.44
2018-08-13T00:15:35.169Z,58.35
2018-08-13T00:16:34.964Z,58.41
2018-08-13T00:17:35.172Z,58.38
2018-08-13T00:18:34.919Z,58.21
2018-08-13T00:19:35.005Z,58.34
2018-08-13T00:20:34.817Z,58.18
2018-08-13T00:21:35.136Z,58.42
2018-08-13T00:22:35.086Z,58.36
2018-08-13T00:23:34.987Z,58.26
2018-08-13T00:24:35.131Z,58.3
2018-08-13T00:25:35.107Z,58.25
2018-08-13T00:26:34.889Z,58.29
2018-08-13T00:27:34.981Z,58.38
2018-08-13T00:28:35.129Z,58.43
2018-08-13T00:29:34.887Z,58.37
2018-08-13T00:30:35.113Z,58.26
2018-08-13T00:31:35.167Z,58.36
2018-08-13T00:32:35.096Z,58.37
2018-08-13T00:33:34.866Z,58.35
2018-08-13T00:34:35.103Z,58.35
2018-08-13T00:35:35.171Z,58.25
2018-08-13T00:36:35.168Z,58.32
2018-08-13T00:37:35.171Z,58.38
2018-08-13T00:38:34.829Z,58.44
2018-08-13T00:39:34.981Z,58.34
2018-08-13T00:40:34.989Z,58.49
2018-08-13T00:41:35.156Z,58.32
2018-08-13T00:42:35.061Z,58.36
2018-08-13T00:43:34.961Z,58.37
2018-08-13T00:44:35.055Z,58.44
2018-08-13T00:45:34.912Z,58.44
2018-08-13T00:46:34.955Z,58.39
2018-08-13T00:47:34.889Z,58.32
2018-08-13T00:48:35.009Z,58.37
2018-08-13T00:49:35.124Z,58.37
2018-08-13T00:50:34.873Z,58.45
2018-08-13T00:51:35.189Z,58.35
2018-08-13T00:52:35.048Z,58.39
2018-08-13T00:53:34.895Z,58.43
2018-08-13T00:54:35.121Z,58.23
2018-08-13T00:55:35.184Z,58.37
2018-08-13T00:56:34.842Z,58.38
2018-08-13T00:57:35.147Z,58.42
2018-08-13T00:58:35.130Z,58.45
2018-08-13T00:59:35.104Z,58.52
2018-08-13T01:00:34.963Z,58.4
2018-08-13T01:01:35.051Z,58.54
2018-08-13T01:02:34.877Z,58.33
2018-08-13T01:03:35.039Z,58.42
2018-08-13T01:04:35.014Z,58.45
2018-08-13T01:05:35.017Z,58.39
2018-08-13T01:06:34.974Z,58.43
2018-08-13T01:07:34.845Z,58.35
2018-08-13T01:08:35.056Z,58.43
2018-08-13T01:09:34.841Z,58.45
2018-08-13T01:10:35.021Z,58.43
2018-08-13T01:11:35.054Z,58.39
2018-08-13T01:12:34.927Z,58.38
2018-08-13T01:13:35.056Z,58.36
2018-08-13T01:14:35.032Z,58.42
2018-08-13T01:15:34.988Z,58.34
2018-08-13T01:16:35.258Z,58.41
2018-08-13T01:17:35.171Z,58.57
2018-08-13T01:18:35.111Z,58.48
2018-08-13T01:19:35.113Z,58.41
2018-08-13T01:20:35.055Z,58.59
2018-08-13T01:21:35.130Z,58.42
2018-08-13T01:22:35.300Z,58.43
2018-08-13T01:23:34.951Z,58.53
2018-08-13T01:24:35.180Z,58.45
2018-08-13T01:25:34.986Z,58.46
2018-08-13T01:26:35.243Z,58.53
2018-08-13T01:27:34.973Z,58.45
2018-08-13T01:28:35.251Z,58.43
2018-08-13T01:29:35.125Z,58.44
2018-08-13T01:30:34.957Z,58.4
2018-08-13T01:31:35.133Z,58.44
2018-08-13T01:32:35.055Z,58.44
2018-08-13T01:33:35.113Z,58.52
2018-08-13T01:34:35.084Z,58.5
2018-08-13T01:35:35.167Z,58.51
2018-08-13T01:36:34.953Z,58.64
2018-08-13T01:37:34.963Z,58.64
2018-08-13T01:38:35.049Z,58.53
2018-08-13T01:39:35.104Z,58.61
2018-08-13T01:40:35.076Z,58.4
2018-08-13T01:41:34.856Z,58.54
2018-08-13T01:42:34.944Z,58.47
2018-08-13T01:43:35.079Z,58.46
2018-08-13T01:44:35.003Z,58.39
2018-08-13T01:45:35.184Z,58.42
2018-08-13T01:46:35.113Z,58.41
2018-08-13T01:47:35.143Z,58.53
2018-08-13T01:48:34.985Z,58.39
2018-08-13T01:49:35.051Z,58.46
2018-08-13T01:50:34.815Z,58.42
2018-08-13T01:51:35.117Z,58.48
2018-08-13T01:52:34.957Z,58.41
2018-08-13T01:53:35.073Z,58.5
2018-08-13T01:54:35.151Z,58.62
2018-08-13T01:55:34.988Z,58.59
2018-08-13T01:56:35.195Z,58.3
2018-08-13T01:57:34.982Z,58.49
2018-08-13T01:58:35.203Z,58.42
2018-08-13T01:59:34.814Z,58.45
2018-08-13T02:00:34.935Z,58.63
2018-08-13T02:01:35.135Z,58.49
2018-08-13T02:02:34.908Z,58.37
2018-08-13T02:03:35.083Z,58.51
2018-08-13T02:04:35.193Z,58.4
2018-08-13T02:05:35.114Z,58.35
2018-08-13T02:06:34.844Z,58.41
2018-08-13T02:07:35.049Z,58.38
2018-08-13T02:08:34.826Z,58.34
2018-08-13T02:09:35.084Z,58.43
2018-08-13T02:10:35.182Z,58.48
2018-08-13T02:11:34.872Z,58.47
2018-08-13T02:12:35.120Z,58.54
2018-08-13T02:13:35.082Z,58.61
2018-08-13T02:14:35.078Z,58.52
2018-08-13T02:15:35.063Z,58.48
2018-08-13T02:16:35.163Z,58.49
2018-08-13T02:17:34.815Z,58.54
2018-08-13T02:18:34.953Z,58.56
2018-08-13T02:19:34.857Z,58.54
2018-08-13T02:20:35.086Z,58.49
2018-08-13T02:21:35.095Z,58.49
2018-08-13T02:22:34.965Z,58.63
2018-08-13T02:23:34.962Z,58.53
2018-08-13T02:24:34.978Z,58.49
2018-08-13T02:25:34.902Z,58.62
2018-08-13T02:26:34.958Z,58.6
2018-08-13T02:27:35.132Z,58.51
2018-08-13T02:28:35.282Z,58.53
2018-08-13T02:29:34.946Z,58.63
2018-08-13T02:30:35.284Z,58.49
2018-08-13T02:31:35.026Z,58.58
2018-08-13T02:32:34.911Z,58.61
2018-08-13T02:33:35.123Z,58.63
2018-08-13T02:34:34.959Z,58.36
2018-08-13T02:35:34.921Z,58.46
2018-08-13T02:36:35.152Z,58.53
2018-08-13T02:37:34.983Z,58.47
2018-08-13T02:38:35.375Z,58.55
2018-08-13T02:39:34.860Z,58.49
2018-08-13T02:40:35.066Z,58.5
2018-08-13T02:41:35.069Z,58.43
2018-08-13T02:42:35.091Z,58.53
2018-08-13T02:43:34.982Z,58.68
2018-08-13T02:44:35.008Z,58.56
2018-08-13T02:45:34.889Z,58.55
2018-08-13T02:46:34.971Z,58.61
2018-08-13T02:47:35.135Z,58.62
2018-08-13T02:48:35.018Z,58.43
2018-08-13T02:49:34.904Z,58.47
2018-08-13T02:50:34.986Z,58.63
2018-08-13T02:51:34.944Z,58.67
2018-08-13T02:52:34.869Z,58.53
2018-08-13T02:53:35.222Z,58.49
2018-08-13T02:54:34.996Z,58.68
2018-08-13T02:55:34.814Z,58.67
2018-08-13T02:56:34.960Z,58.35
2018-08-13T02:57:35.128Z,58.58
2018-08-13T02:58:35.073Z,58.57
2018-08-13T02:59:35.013Z,58.56
2018-08-13T03:00:35.129Z,58.48
2018-08-13T03:01:34.865Z,58.41
2018-08-13T03:02:34.832Z,58.49
2018-08-13T03:03:34.913Z,58.55
2018-08-13T03:04:34.920Z,58.5
2018-08-13T03:05:34.883Z,58.61
2018-08-13T03:06:34.956Z,58.57
2018-08-13T03:07:34.911Z,58.67
2018-08-13T03:08:34.996Z,58.67
2018-08-13T03:09:35.066Z,58.67
2018-08-13T03:10:34.805Z,58.5
2018-08-13T03:11:34.843Z,58.75
2018-08-13T03:12:34.954Z,58.51
2018-08-13T03:13:34.829Z,58.57
2018-08-13T03:14:34.977Z,58.57
2018-08-13T03:15:34.963Z,58.63
2018-08-13T03:16:34.886Z,58.64
2018-08-13T03:17:34.917Z,58.43
2018-08-13T03:18:34.934Z,58.54
2018-08-13T03:19:35.028Z,58.48
2018-08-13T03:20:35.109Z,58.58
2018-08-13T03:21:35.167Z,58.65
2018-08-13T03:22:34.926Z,58.54
2018-08-13T03:23:34.968Z,58.52
2018-08-13T03:24:35.031Z,58.57
2018-08-13T03:25:34.948Z,58.69
2018-08-13T03:26:34.973Z,58.72
2018-08-13T03:27:35.334Z,58.66
2018-08-13T03:28:35.199Z,58.54
2018-08-13T03:29:35.011Z,58.57
2018-08-13T03:30:35.119Z,58.75
2018-08-13T03:31:35.123Z,58.72
2018-08-13T03:32:35.197Z,58.61
2018-08-13T03:33:35.262Z,58.65
2018-08-13T03:34:34.905Z,58.51
2018-08-13T03:35:35.232Z,58.76
2018-08-13T03:36:35.285Z,58.58
2018-08-13T03:37:34.973Z,58.68
2018-08-13T03:38:34.922Z,58.69
2018-08-13T03:39:35.102Z,58.65
2018-08-13T03:40:35.151Z,58.76
2018-08-13T03:41:34.899Z,58.84
2018-08-13T03:42:35.166Z,58.58
2018-08-13T03:43:34.955Z,58.51
2018-08-13T03:44:34.957Z,58.58
2018-08-13T03:45:34.867Z,58.55
2018-08-13T03:46:35.161Z,58.58
2018-08-13T03:47:34.946Z,58.72
2018-08-13T03:48:34.996Z,58.68
2018-08-13T03:49:34.824Z,58.65
2018-08-13T03:50:35.363Z,58.69
2018-08-13T03:51:35.148Z,58.52
2018-08-13T03:52:35.096Z,58.5
2018-08-13T03:53:35.099Z,58.71
2018-08-13T03:54:34.977Z,58.77
2018-08-13T03:55:35.119Z,58.48
2018-08-13T03:56:34.912Z,58.7
2018-08-13T03:57:34.815Z,58.65
2018-08-13T03:58:35.090Z,58.37
2018-08-13T03:59:35.053Z,58.69
2018-08-13T04:00:34.788Z,58.52
2018-08-13T04:01:35.027Z,58.71
2018-08-13T04:02:35.072Z,58.7
2018-08-13T04:03:35.068Z,58.67
2018-08-13T04:04:35.017Z,58.59
2018-08-13T04:05:35.009Z,58.64
2018-08-13T04:06:35.082Z,58.56
2018-08-13T04:07:35.171Z,58.6
2018-08-13T04:08:34.987Z,58.67
2018-08-13T04:09:34.884Z,58.62
2018-08-13T04:10:34.992Z,58.58
2018-08-13T04:11:35.123Z,58.77
2018-08-13T04:12:35.028Z,58.64
2018-08-13T04:13:35.212Z,58.65
2018-08-13T04:14:34.842Z,58.64
2018-08-13T04:15:35.331Z,58.79
2018-08-13T04:16:35.150Z,58.74
2018-08-13T04:17:35.022Z,58.69
2018-08-13T04:18:35.019Z,58.73
2018-08-13T04:19:34.921Z,58.81
2018-08-13T04:20:35.051Z,58.64
2018-08-13T04:21:34.956Z,58.86
2018-08-13T04:22:34.978Z,58.99
2018-08-13T04:23:34.982Z,58.6
2018-08-13T04:24:34.976Z,58.71
2018-08-13T04:25:35.070Z,58.66
2018-08-13T04:26:34.915Z,58.84
2018-08-13T04:27:34.890Z,58.84
2018-08-13T04:28:34.851Z,58.85
2018-08-13T04:29:34.920Z,58.6
2018-08-13T04:30:34.894Z,58.7
2018-08-13T04:31:34.969Z,58.65
2018-08-13T04:32:35.091Z,58.72
2018-08-13T04:33:34.851Z,58.81
2018-08-13T04:34:35.029Z,58.67
2018-08-13T04:35:35.055Z,58.73
2018-08-13T04:36:34.985Z,58.85
2018-08-13T04:37:35.017Z,58.71
2018-08-13T04:38:34.940Z,58.75
2018-08-13T04:39:34.989Z,58.83
2018-08-13T04:40:34.800Z,58.72
2018-08-13T04:41:35.056Z,58.79
2018-08-13T04:42:34.948Z,58.75
2018-08-13T04:43:34.925Z,58.7
2018-08-13T04:44:35.030Z,58.73
2018-08-13T04:45:34.845Z,58.73
2018-08-13T04:46:34.957Z,58.64
2018-08-13T04:47:34.908Z,58.82
2018-08-13T04:48:35.047Z,58.61
2018-08-13T04:49:34.987Z,58.77
2018-08-13T04:50:34.927Z,58.78
2018-08-13T04:51:35.002Z,58.77
2018-08-13T04:52:34.967Z,58.79
2018-08-13T04:53:34.991Z,58.78
2018-08-13T04:54:34.854Z,58.87
2018-08-13T04:55:35.005Z,58.74
2018-08-13T04:56:34.855Z,58.87
2018-08-13T04:57:35.141Z,58.81
2018-08-13T04:58:35.066Z,58.8
2018-08-13T04:59:35.045Z,58.71
2018-08-13T05:00:35.061Z,58.72
2018-08-13T05:01:34.838Z,58.8
2018-08-13T05:02:34.998Z,58.82
2018-08-13T05:03:34.887Z,58.88
2018-08-13T05:04:34.921Z,58.83
2018-08-13T05:05:35.070Z,58.79
2018-08-13T05:06:34.805Z,58.73
2018-08-13T05:07:34.810Z,58.95
2018-08-13T05:08:35.065Z,58.65
2018-08-13T05:09:34.960Z,58.77
2018-08-13T05:10:35.020Z,58.91
2018-08-13T05:11:34.991Z,58.73
2018-08-13T05:12:34.936Z,58.79
2018-08-13T05:13:34.909Z,58.84
2018-08-13T05:14:34.851Z,58.98
2018-08-13T05:15:34.940Z,58.71
2018-08-13T05:16:35.144Z,58.86
2018-08-13T05:17:35.045Z,58.83
2018-08-13T05:18:34.946Z,58.88
2018-08-13T05:19:35.195Z,58.62
2018-08-13T05:20:35.099Z,58.8
2018-08-13T05:21:34.899Z,58.91
2018-08-13T05:22:35.110Z,58.83
2018-08-13T05:23:34.948Z,58.79
2018-08-13T05:24:34.960Z,58.78
2018-08-13T05:25:35.032Z,58.8
2018-08-13T05:26:35.160Z,58.67
2018-08-13T05:27:35.027Z,58.88
2018-08-13T05:28:34.983Z,58.72
2018-08-13T05:29:35.008Z,58.91
2018-08-13T05:30:34.886Z,58.7
2018-08-13T05:31:34.928Z,58.83
2018-08-13T05:32:34.904Z,58.81
2018-08-13T05:33:35.149Z,59
2018-08-13T05:34:34.852Z,58.78
2018-08-13T05:35:35.100Z,58.86
2018-08-13T05:36:34.971Z,58.8
2018-08-13T05:37:35.059Z,58.63
2018-08-13T05:38:34.962Z,58.88
2018-08-13T05:39:34.822Z,58.74
2018-08-13T05:40:35.115Z,58.81
2018-08-13T05:41:34.868Z,58.91
2018-08-13T05:42:35.089Z,58.79
2018-08-13T05:43:35.089Z,58.91
2018-08-13T05:44:34.837Z,58.83
2018-08-13T05:45:35.003Z,59.05
2018-08-13T05:46:35.148Z,58.92
2018-08-13T05:47:34.993Z,58.93
2018-08-13T05:48:34.882Z,58.78
2018-08-13T05:49:34.969Z,58.63
2018-08-13T05:50:34.785Z,58.67
2018-08-13T05:51:34.874Z,58.97
2018-08-13T05:52:35.032Z,58.8
2018-08-13T05:53:34.893Z,58.98
2018-08-13T05:54:34.957Z,58.73
2018-08-13T05:55:35.088Z,58.83
2018-08-13T05:56:34.916Z,58.83
2018-08-13T05:57:35.003Z,58.9
2018-08-13T05:58:34.804Z,59.07
2018-08-13T05:59:34.856Z,58.8
2018-08-13T06:00:34.934Z,58.94
2018-08-13T06:01:34.986Z,58.88
2018-08-13T06:02:34.994Z,58.9
2018-08-13T06:03:35.038Z,58.91
2018-08-13T06:04:35.030Z,58.83
2018-08-13T06:05:35.001Z,58.85
2018-08-13T06:06:34.994Z,58.87
2018-08-13T06:07:34.899Z,58.87
2018-08-13T06:08:35.048Z,58.92
2018-08-13T06:09:34.964Z,58.92
2018-08-13T06:10:34.943Z,58.93
2018-08-13T06:11:35.144Z,58.87
2018-08-13T06:12:34.930Z,58.84
2018-08-13T06:13:35.102Z,58.89
2018-08-13T06:14:34.834Z,58.94
2018-08-13T06:15:34.837Z,58.95
2018-08-13T06:16:34.846Z,58.94
2018-08-13T06:17:34.915Z,58.78
2018-08-13T06:18:34.900Z,58.91
2018-08-13T06:19:34.938Z,58.8
2018-08-13T06:20:34.856Z,58.92
2018-08-13T06:21:35.047Z,58.86
2018-08-13T06:22:34.818Z,58.91
2018-08-13T06:23:35.018Z,58.83
2018-08-13T06:24:35.022Z,58.77
2018-08-13T06:25:34.916Z,58.97
2018-08-13T06:26:34.830Z,58.85
2018-08-13T06:27:34.790Z,58.74
2018-08-13T06:28:35.013Z,58.95
2018-08-13T06:29:34.966Z,58.91
2018-08-13T06:30:35.045Z,58.92
2018-08-13T06:31:34.809Z,58.92
2018-08-13T06:32:34.886Z,58.89
2018-08-13T06:33:35.150Z,58.87
2018-08-13T06:34:34.868Z,58.95
2018-08-13T06:35:34.923Z,58.91
2018-08-13T06:36:34.986Z,58.93
2018-08-13T06:37:34.908Z,58.93
2018-08-13T06:38:35.027Z,58.95
2018-08-13T06:39:34.954Z,58.84
2018-08-13T06:40:34.864Z,59.08
2018-08-13T06:41:35.059Z,58.93
2018-08-13T06:42:35.067Z,58.91
2018-08-13T06:43:34.850Z,59.04
2018-08-13T06:44:34.948Z,59.05
2018-08-13T06:45:34.947Z,58.8
2018-08-13T06:46:35.102Z,58.89
2018-08-13T06:47:34.991Z,58.94
2018-08-13T06:48:34.996Z,58.88
2018-08-13T06:49:35.065Z,58.99
2018-08-13T06:50:35.062Z,58.94
2018-08-13T06:51:34.994Z,58.96
2018-08-13T06:52:35.154Z,58.93
2018-08-13T06:53:34.827Z,58.93
2018-08-13T06:54:34.948Z,58.91
2018-08-13T06:55:34.883Z,58.85
2018-08-13T06:56:35.075Z,58.85
2018-08-13T06:57:35.202Z,59.05
2018-08-13T06:58:34.905Z,59.01
2018-08-13T06:59:35.134Z,58.99
2018-08-13T07:00:34.866Z,59.02
2018-08-13T07:01:35.117Z,58.79
2018-08-13T07:02:34.785Z,58.92
2018-08-13T07:03:35.006Z,58.99
2018-08-13T07:04:34.898Z,59.02
2018-08-13T07:05:35.022Z,58.95
2018-08-13T07:06:34.899Z,58.98
2018-08-13T07:07:34.959Z,58.92
2018-08-13T07:08:34.844Z,59.03
2018-08-13T07:09:35.110Z,59.2
2018-08-13T07:10:34.927Z,59.28
2018-08-13T07:11:34.753Z,59.14
2018-08-13T07:12:34.845Z,59.11
2018-08-13T07:13:35.065Z,59
2018-08-13T07:14:35.125Z,59.11
2018-08-13T07:15:35.127Z,59.07
2018-08-13T07:16:34.834Z,59.1
2018-08-13T07:17:35.019Z,58.96
2018-08-13T07:18:34.984Z,59.16
2018-08-13T07:19:34.981Z,59.15
2018-08-13T07:20:34.762Z,59.14
2018-08-13T07:21:35.449Z,59.22
2018-08-13T07:22:34.968Z,59.16
2018-08-13T07:23:35.024Z,59.2
2018-08-13T07:24:35.089Z,59.14
2018-08-13T07:25:34.846Z,59.17
2018-08-13T07:26:35.020Z,59.32
2018-08-13T07:27:34.820Z,59.18
2018-08-13T07:28:35.057Z,59.18
2018-08-13T07:29:34.794Z,59.31
2018-08-13T07:30:34.984Z,59.15
2018-08-13T07:31:34.957Z,59.19
2018-08-13T07:32:35.007Z,59.24
2018-08-13T07:33:34.930Z,59.21
2018-08-13T07:34:35.181Z,59.15
2018-08-13T07:35:34.878Z,59.19
2018-08-13T07:36:34.870Z,59.22
2018-08-13T07:37:35.129Z,59.09
2018-08-13T07:38:34.846Z,59.29
2018-08-13T07:39:35.126Z,59.32
2018-08-13T07:40:34.832Z,59.26
2018-08-13T07:41:34.982Z,59.25
2018-08-13T07:42:35.041Z,59.24
2018-08-13T07:43:35.013Z,59.25
2018-08-13T07:44:34.895Z,59.13
2018-08-13T07:45:35.449Z,59.15
2018-08-13T07:46:35.053Z,59.46
2018-08-13T07:47:34.830Z,59.42
2018-08-13T07:48:34.937Z,59.48
2018-08-13T07:49:34.908Z,59.37
2018-08-13T07:50:34.910Z,59.23
2018-08-13T07:51:35.012Z,59.34
2018-08-13T07:52:34.997Z,59.37
2018-08-13T07:53:34.841Z,59.38
2018-08-13T07:54:35.057Z,59.48
2018-08-13T07:55:34.901Z,59.4
2018-08-13T07:56:34.859Z,59.5
2018-08-13T07:57:34.855Z,59.47
2018-08-13T07:58:35.023Z,59.37
2018-08-13T07:59:35.068Z,59.36
2018-08-13T08:00:34.839Z,59.46
2018-08-13T08:01:34.979Z,59.34
2018-08-13T08:02:34.815Z,59.39
2018-08-13T08:03:34.851Z,59.4
2018-08-13T08:04:34.864Z,59.52
2018-08-13T08:05:34.844Z,59.52
2018-08-13T08:06:34.893Z,59.52
2018-08-13T08:07:35.115Z,59.49
2018-08-13T08:08:35.050Z,59.41
2018-08-13T08:09:34.867Z,59.35
2018-08-13T08:10:35.077Z,59.47
2018-08-13T08:11:37.855Z,59.45
2018-08-13T08:12:35.063Z,59.35
2018-08-13T08:13:34.963Z,59.49
2018-08-13T08:14:34.917Z,59.4
2018-08-13T08:15:35.186Z,59.35
2018-08-13T08:16:34.883Z,59.21
2018-08-13T08:17:35.156Z,59.36
2018-08-13T08:18:35.146Z,59.47
2018-08-13T08:19:34.885Z,59.43
2018-08-13T08:20:35.092Z,59.49
2018-08-13T08:21:34.885Z,59.38
2018-08-13T08:22:35.084Z,59.43
2018-08-13T08:23:34.777Z,59.36
2018-08-13T08:24:34.905Z,59.54
2018-08-13T08:25:35.089Z,59.45
2018-08-13T08:26:34.936Z,59.41
2018-08-13T08:27:35.063Z,59.29
2018-08-13T08:28:34.804Z,59.46
2018-08-13T08:29:34.866Z,59.26
2018-08-13T08:30:35.149Z,59.42
2018-08-13T08:31:35.026Z,59.43
2018-08-13T08:32:34.867Z,59.3
2018-08-13T08:33:34.808Z,59.36
2018-08-13T08:34:35.013Z,59.42
2018-08-13T08:35:34.823Z,59.18
2018-08-13T08:36:34.920Z,59.37
2018-08-13T08:37:34.870Z,59.61
2018-08-13T08:38:35.071Z,59.46
2018-08-13T08:39:34.748Z,59.42
2018-08-13T08:40:35.111Z,59.41
2018-08-13T08:41:34.986Z,59.49
2018-08-13T08:42:34.957Z,59.44
2018-08-13T08:43:34.735Z,59.38
2018-08-13T08:44:35.120Z,59.43
2018-08-13T08:45:35.196Z,59.41
2018-08-13T08:46:34.858Z,59.34
2018-08-13T08:47:35.091Z,59.29
2018-08-13T08:48:34.886Z,59.28
2018-08-13T08:49:35.299Z,59.42
2018-08-13T08:50:34.788Z,59.49
2018-08-13T08:51:35.034Z,59.37
2018-08-13T08:52:34.928Z,59.37
2018-08-13T08:53:35.106Z,59.31
2018-08-13T08:54:35.092Z,59.36
2018-08-13T08:55:35.052Z,59.39
2018-08-13T08:56:35.023Z,59.34
2018-08-13T08:57:34.952Z,59.23
2018-08-13T08:58:35.016Z,59.41
2018-08-13T08:59:34.884Z,59.36
2018-08-13T09:00:35.044Z,59.24
2018-08-13T09:01:34.827Z,59.49
2018-08-13T09:02:34.977Z,59.51
2018-08-13T09:03:35.133Z,59.36
2018-08-13T09:04:34.895Z,59.34
2018-08-13T09:05:35.103Z,59.36
2018-08-13T09:06:35.075Z,59.37
2018-08-13T09:07:34.950Z,59.45
2018-08-13T09:08:34.832Z,59.36
2018-08-13T09:09:35.116Z,59.48
2018-08-13T09:10:34.852Z,59.43
2018-08-13T09:11:34.992Z,59.49
2018-08-13T09:12:34.962Z,59.42
2018-08-13T09:13:35.134Z,59.37
2018-08-13T09:14:35.058Z,59.41
2018-08-13T09:15:34.932Z,59.39
2018-08-13T09:16:34.906Z,59.44
2018-08-13T09:17:34.850Z,59.45
2018-08-13T09:18:34.793Z,59.49
2018-08-13T09:19:35.015Z,59.24
2018-08-13T09:20:34.967Z,59.37
2018-08-13T09:21:35.081Z,59.44
2018-08-13T09:22:34.983Z,59.37
2018-08-13T09:23:34.963Z,59.48
2018-08-13T09:24:34.983Z,59.51
2018-08-13T09:25:35.093Z,59.39
2018-08-13T09:26:34.833Z,59.37
2018-08-13T09:27:34.989Z,59.36
2018-08-13T09:28:34.889Z,59.45
2018-08-13T09:29:34.959Z,59.38
2018-08-13T09:30:34.764Z,59.42
2018-08-13T09:31:34.908Z,59.42
2018-08-13T09:32:34.756Z,59.38
2018-08-13T09:33:35.003Z,59.38
2018-08-13T09:34:34.974Z,59.44
2018-08-13T09:35:35.077Z,59.36
2018-08-13T09:36:34.912Z,59.28
2018-08-13T09:37:34.809Z,59.42
2018-08-13T09:38:34.972Z,59.39
2018-08-13T09:39:34.945Z,59.46
2018-08-13T09:40:34.858Z,59.41
2018-08-13T09:41:34.878Z,59.45
2018-08-13T09:42:34.964Z,59.39
2018-08-13T09:43:34.858Z,59.46
2018-08-13T09:44:34.962Z,59.4
2018-08-13T09:45:35.011Z,59.45
2018-08-13T09:46:34.828Z,59.38
2018-08-13T09:47:35.114Z,59.48
2018-08-13T09:48:35.097Z,59.48
2018-08-13T09:49:34.917Z,59.33
2018-08-13T09:50:35.003Z,59.42
2018-08-13T09:51:34.871Z,59.45
2018-08-13T09:52:34.702Z,59.3
2018-08-13T09:53:34.927Z,59.39
2018-08-13T09:54:34.877Z,59.4
2018-08-13T09:55:34.775Z,59.45
2018-08-13T09:56:34.858Z,59.42
2018-08-13T09:57:35.133Z,59.44
2018-08-13T09:58:34.852Z,59.44
2018-08-13T09:59:34.962Z,59.39
2018-08-13T10:00:35.088Z,59.47
2018-08-13T10:01:34.874Z,59.41
2018-08-13T10:02:34.867Z,59.42
2018-08-13T10:03:35.002Z,59.43
2018-08-13T10:04:34.894Z,59.31
2018-08-13T10:05:34.807Z,59.45
2018-08-13T10:06:34.824Z,59.46
2018-08-13T10:07:34.907Z,59.38
2018-08-13T10:08:35.037Z,59.55
2018-08-13T10:09:35.071Z,59.34
2018-08-13T10:10:35.046Z,59.33
2018-08-13T10:11:34.787Z,59.34
2018-08-13T10:12:34.888Z,59.36
2018-08-13T10:13:34.839Z,59.43
2018-08-13T10:14:34.958Z,59.4
2018-08-13T10:15:34.727Z,59.45
2018-08-13T10:16:35.084Z,59.46
2018-08-13T10:17:35.061Z,59.51
2018-08-13T10:18:34.989Z,59.44
2018-08-13T10:19:34.937Z,59.5
2018-08-13T10:20:34.953Z,59.51
2018-08-13T10:21:35.017Z,59.53
2018-08-13T10:22:36.671Z,59.4
2018-08-13T10:23:35.041Z,59.47
2018-08-13T10:24:34.803Z,59.64
2018-08-13T10:25:35.083Z,59.45
2018-08-13T10:26:34.882Z,59.44
2018-08-13T10:27:34.890Z,59.5
2018-08-13T10:28:35.049Z,59.38
2018-08-13T10:29:34.912Z,59.47
2018-08-13T10:30:34.756Z,59.45
2018-08-13T10:31:35.655Z,59.46
2018-08-13T10:32:34.933Z,59.5
2018-08-13T10:33:34.798Z,59.5
2018-08-13T10:34:35.089Z,59.47
2018-08-13T10:35:35.550Z,59.43
2018-08-13T10:36:35.476Z,59.41
2018-08-13T10:37:34.950Z,59.48
2018-08-13T10:38:35.132Z,59.38
2018-08-13T10:39:34.823Z,59.37
2018-08-13T10:40:34.848Z,59.48
2018-08-13T10:41:35.067Z,59.52
2018-08-13T10:42:34.779Z,59.49
2018-08-13T10:43:35.201Z,59.41
2018-08-13T10:44:35.152Z,59.39
2018-08-13T10:45:34.943Z,59.48
2018-08-13T10:46:35.029Z,59.46
2018-08-13T10:47:34.923Z,59.53
2018-08-13T10:48:34.886Z,59.45
2018-08-13T10:49:34.812Z,59.51
2018-08-13T10:50:35.035Z,59.63
2018-08-13T10:51:34.975Z,59.45
2018-08-13T10:52:34.959Z,59.4
2018-08-13T10:53:34.765Z,59.4
2018-08-13T10:54:34.952Z,59.57
2018-08-13T10:55:34.795Z,59.38
2018-08-13T10:56:34.906Z,59.35
2018-08-13T10:57:34.750Z,59.34
2018-08-13T10:58:34.934Z,59.53
2018-08-13T10:59:34.882Z,59.45
2018-08-13T11:00:34.763Z,59.49
2018-08-13T11:01:34.940Z,59.44
2018-08-13T11:02:34.963Z,59.45
2018-08-13T11:03:35.058Z,59.49
2018-08-13T11:04:34.921Z,59.48
2018-08-13T11:05:34.987Z,59.65
2018-08-13T11:06:34.827Z,59.53
2018-08-13T11:07:34.886Z,59.55
2018-08-13T11:08:34.817Z,59.48
2018-08-13T11:09:34.788Z,59.53
2018-08-13T11:10:35.042Z,59.8
2018-08-13T11:11:34.931Z,59.67
2018-08-13T11:12:34.857Z,59.44
2018-08-13T11:13:35.297Z,59.54
2018-08-13T11:14:34.851Z,59.52
2018-08-13T11:15:34.834Z,59.41
2018-08-13T11:16:34.836Z,59.57
2018-08-13T11:17:34.719Z,59.46
2018-08-13T11:18:34.782Z,59.53
2018-08-13T11:19:35.029Z,59.48
2018-08-13T11:20:34.863Z,59.52
2018-08-13T11:21:34.946Z,59.58
2018-08-13T11:22:34.951Z,59.49
2018-08-13T11:23:34.933Z,59.54
2018-08-13T11:24:34.810Z,59.69
2018-08-13T11:25:34.855Z,59.5
2018-08-13T11:26:35.096Z,59.53
2018-08-13T11:27:34.656Z,59.4
2018-08-13T11:28:35.444Z,59.63
2018-08-13T11:29:34.903Z,59.8
2018-08-13T11:30:34.901Z,59.48
2018-08-13T11:31:35.077Z,59.64
2018-08-13T11:32:34.988Z,59.54
2018-08-13T11:33:34.774Z,59.6
2018-08-13T11:34:35.095Z,59.46
2018-08-13T11:35:35.043Z,59.5
2018-08-13T11:36:34.932Z,59.53
2018-08-13T11:37:35.029Z,59.42
2018-08-13T11:38:34.859Z,59.62
2018-08-13T11:39:34.762Z,59.39
2018-08-13T11:40:34.909Z,59.59
2018-08-13T11:41:34.947Z,59.39
2018-08-13T11:42:34.880Z,59.54
2018-08-13T11:43:34.878Z,59.63
2018-08-13T11:44:34.870Z,59.49
2018-08-13T11:45:34.973Z,59.41
2018-08-13T11:46:34.872Z,59.54
2018-08-13T11:47:35.198Z,59.45
2018-08-13T11:48:34.884Z,59.57
2018-08-13T11:49:35.129Z,59.45
2018-08-13T11:50:34.848Z,59.6
2018-08-13T11:51:34.904Z,59.39
2018-08-13T11:52:34.999Z,59.55
2018-08-13T11:53:35.363Z,59.45
2018-08-13T11:54:34.851Z,59.6
2018-08-13T11:55:34.882Z,59.57
2018-08-13T11:56:34.937Z,59.34
2018-08-13T11:57:34.825Z,59.48
2018-08-13T11:58:34.896Z,59.67
2018-08-13T11:59:34.936Z,59.56
2018-08-13T12:00:34.897Z,59.43
2018-08-13T12:01:34.813Z,59.45
2018-08-13T12:02:34.842Z,59.53
2018-08-13T12:03:34.853Z,59.46
2018-08-13T12:04:34.909Z,59.55
2018-08-13T12:05:34.885Z,59.6
2018-08-13T12:06:34.692Z,59.48
2018-08-13T12:07:35.087Z,59.61
2018-08-13T12:08:34.916Z,59.6
2018-08-13T12:09:34.906Z,59.61
2018-08-13T12:10:34.903Z,59.35
2018-08-13T12:11:34.948Z,59.4
2018-08-13T12:12:34.716Z,59.21
2018-08-13T12:13:35.116Z,59.39
2018-08-13T12:14:35.037Z,59.49
2018-08-13T12:15:35.204Z,59.53
2018-08-13T12:16:34.852Z,59.5
2018-08-13T12:17:35.057Z,59.53
2018-08-13T12:18:34.764Z,59.56
2018-08-13T12:19:35.255Z,59.55
2018-08-13T12:20:34.954Z,59.57
2018-08-13T12:21:34.896Z,59.54
2018-08-13T12:22:34.898Z,59.54
2018-08-13T12:23:34.679Z,59.56
2018-08-13T12:24:35.000Z,59.75
2018-08-13T12:25:34.938Z,59.52
2018-08-13T12:26:34.828Z,59.63
2018-08-13T12:27:34.834Z,59.54
2018-08-13T12:28:35.059Z,59.51
2018-08-13T12:29:34.964Z,59.73
2018-08-13T12:30:34.818Z,59.51
2018-08-13T12:31:35.016Z,59.4
2018-08-13T12:32:34.964Z,59.66
2018-08-13T12:33:34.847Z,59.5
2018-08-13T12:34:34.819Z,59.48
2018-08-13T12:35:34.857Z,59.46
2018-08-13T12:36:34.909Z,59.58
2018-08-13T12:37:34.935Z,59.74
2018-08-13T12:38:34.750Z,59.47
2018-08-13T12:39:35.093Z,59.57
2018-08-13T12:40:34.916Z,59.49
2018-08-13T12:41:34.985Z,59.48
2018-08-13T12:42:35.024Z,59.57
2018-08-13T12:43:34.812Z,59.58
2018-08-13T12:44:35.069Z,59.61
2018-08-13T12:45:34.711Z,59.63
2018-08-13T12:46:34.764Z,59.63
2018-08-13T12:47:34.825Z,59.54
2018-08-13T12:48:34.930Z,59.47
2018-08-13T12:49:34.946Z,59.62
2018-08-13T12:50:34.822Z,59.44
2018-08-13T12:51:34.916Z,59.53
2018-08-13T12:52:35.061Z,59.5
2018-08-13T12:53:34.816Z,59.61
2018-08-13T12:54:34.758Z,59.58
2018-08-13T12:55:35.046Z,59.53